Airfield :







YOU CAN JOIN US ON...

 
LOGIN :

Register | Disclaimer

   EN    FR    IT 

 









Legend :    VFR   Marginal VFR   IFR   Intensive IFR   Very Intensive IFR
Visi :
Ceiling :
>= 8 km
>= 3000ft
5 to 8 km
1000 to 3000 ft
1500m to 5 km
500 to 1000 ft
800 to 1500m
200 to 500 ft
< 800m
< 200 ft
Symbols :   Thunderstorms  Fog  Heavy snow  Heavy precipitations  Wind > 20 kt







- Airport Elevation : 270 ft
- IATA code : YMX


CYMX - Montreal International Mirabel

CURRENT METAR :
  • 171300Z 25006KT 200V270 25SM FEW010 SCT060 BKN100 OVC250 24/21 A2984 RMK CF1SC4ACC3CI1 CF TR SLP107 DENSITY ALT 1500FT

EXPIRED METARs :
  • 171200Z 26006KT 190V290 20SM FEW010 FEW050 SCT100 BKN150 BKN250 23/21 A2984 RMK CF1SC2ACC1AC2CI2 CF TR SLP104 DENSITY ALT 1400FT
  • 171100Z 25006KT 220V290 15SM FEW040 FEW100 BKN150 BKN250 22/21 A2983 RMK SC1ACC1AC3CI2 SLP101 DENSITY ALT 1300FT

TAF TAF CYMX
Valid from the 17 at 12:00 until the 18 at 12:00 UTC


171138Z 1712/1812 25008KT P6SM FEW070 BKN220
FM171400 24008KT P6SM BKN050 BKN230
TEMPO 1716/1720 5SM SHRA BR OVC015
FM172000 28005KT P6SM BKN040
BECMG 1720/1722 36005KT
FM180300 04005KT P6SM SKC RMK NXT FCST BY 171800Z
CZUL FIR / North America



MET'MAP, your aeronautical weather chart ! - Copyright ORBIFLY December 2007 - Disclaimer

ORBIFLY MET'MAP TEAM :

Programming & Development : Alexandra Zaïnal
Concept & Development : Baudouin d'Aumeries
Co-Development & Prog : Marc-Olivier Méhu
Technical & hardware support : Manuel Goepfert

Contact : metmap@orbifly.com




SOURCES & CREDITS :

   NOAA